This is the latest recevied weather packets stored in our database for station/object JO1YDG-13. If no packets are shown the sender has not sent any weather packets the latest 10 day(s).
| Time | Temp. | Humidity | Pressure | Rain* | Wind** | Luminosity | Snow |
|---|---|---|---|---|---|---|---|
| 1787965612 | 28.33° C | 74% | 1004.4 hPa | 0 mm | - | - | - |
| 1787965312 | 28.33° C | 74% | 1004.2 hPa | 0 mm | - | - | - |
| 1787965012 | 28.33° C | 75% | 1004.2 hPa | 0 mm | - | - | - |
| 1787964712 | 28.33° C | 74% | 1004.2 hPa | 0 mm | - | - | - |
| 1787964411 | 28.89° C | 74% | 1004.2 hPa | 0 mm | - | - | - |
| 1787964113 | 28.33° C | 76% | 1004.2 hPa | 0 mm | - | - | - |
| 1787963813 | 27.78° C | 76% | 1004.3 hPa | 0 mm | - | - | - |
| 1787963512 | 27.22° C | 78% | 1004.3 hPa | 0 mm | - | - | - |
| 1787963212 | 27.22° C | 80% | 1004.4 hPa | 0 mm | - | - | - |
| 1787962912 | 27.22° C | 79% | 1004.4 hPa | 0 mm | - | - | - |
| 1787962612 | 27.22° C | 80% | 1004.4 hPa | 0 mm | - | - | - |
| 1787962311 | 27.22° C | 79% | 1004.3 hPa | 0 mm | - | - | - |
| 1787962011 | 27.78° C | 79% | 1004.3 hPa | 0 mm | - | - | - |
| 1787961713 | 28.33° C | 76% | 1004.4 hPa | 0 mm | - | - | - |
| 1787961413 | 26.67° C | 81% | 1004.4 hPa | 0 mm | - | - | - |
| 1787961113 | 27.22° C | 80% | 1004.4 hPa | 0 mm | - | - | - |
| 1787960812 | 27.22° C | 80% | 1004.6 hPa | 0 mm | - | - | - |
| 1787960512 | 27.22° C | 80% | 1004.6 hPa | 0 mm | - | - | - |
| 1787960212 | 27.22° C | 80% | 1004.6 hPa | 0 mm | - | - | - |
| 1787959911 | 27.22° C | 81% | 1004.6 hPa | 0 mm | - | - | - |
| 1787959611 | 26.67° C | 82% | 1004.6 hPa | 0 mm | - | - | - |
| 1787959311 | 26.67° C | 83% | 1004.6 hPa | 0 mm | - | - | - |
| 1787959013 | 26.67° C | 85% | 1004.6 hPa | 0 mm | - | - | - |
| 1787958713 | 26.11° C | 85% | 1004.8 hPa | 0 mm | - | - | - |
| 1787958412 | 26.11° C | 85% | 1004.8 hPa | 0 mm | - | - | - |
* Rain latest hour (hover to see other rain measurements)
** Current wind speed in m/s (hover to see current wind gust speed)